CMB841 Details

Departure: Norfolk Naval Station (Chambers Field) (KNGU)
Arrival: Naval Station Rota (LERT) at N/A
Route: ATLIC AR9 ZIBUT N3960 4055N N4050 N4040 4035N FRS LENSI T25 GUNTI UZ21 BUSEN A44 ESP A5 VFA W1 PIREN
Notes: USTRANSCOM CONTRACT FLIGHT | PAYLOAD RESTRICTED | ETOPS


Current Weather Information
KNGU 230659Z 29006KT 10SM FEW075 16/15 A2990 RMK AO2 SLP123 T01610150
LERT 230700Z 30003KT CAVOK 14/11 Q1012 NOSIG